sensor_id;sensor_type;location;lat;lon;timestamp;temperature;humidity
8475;DHT22;4274;52.012;8.448;2023-04-25T00:01:36;6.40;99.90
8475;DHT22;4274;52.012;8.448;2023-04-25T00:04:03;6.40;99.90
8475;DHT22;4274;52.012;8.448;2023-04-25T00:06:31;6.40;99.90
8475;DHT22;4274;52.012;8.448;2023-04-25T00:08:57;6.40;99.90
8475;DHT22;4274;52.012;8.448;2023-04-25T00:11:23;6.40;99.90
8475;DHT22;4274;52.012;8.448;2023-04-25T00:13:49;6.40;99.90
8475;DHT22;4274;52.012;8.448;2023-04-25T00:16:19;6.40;99.90
8475;DHT22;4274;52.012;8.448;2023-04-25T00:18:45;6.40;99.90
8475;DHT22;4274;52.012;8.448;2023-04-25T00:21:17;6.30;99.90
8475;DHT22;4274;52.012;8.448;2023-04-25T00:23:43;6.30;99.90
8475;DHT22;4274;52.012;8.448;2023-04-25T00:26:11;6.20;99.90
8475;DHT22;4274;52.012;8.448;2023-04-25T00:28:37;6.20;99.90
8475;DHT22;4274;52.012;8.448;2023-04-25T00:31:03;6.20;99.90
8475;DHT22;4274;52.012;8.448;2023-04-25T00:33:29;6.20;99.90
8475;DHT22;4274;52.012;8.448;2023-04-25T00:35:55;6.20;99.90
8475;DHT22;4274;52.012;8.448;2023-04-25T00:38:21;6.20;99.90
8475;DHT22;4274;52.012;8.448;2023-04-25T00:40:47;6.20;99.90
8475;DHT22;4274;52.012;8.448;2023-04-25T00:43:12;6.20;99.90
8475;DHT22;4274;52.012;8.448;2023-04-25T00:45:39;6.20;99.90
8475;DHT22;4274;52.012;8.448;2023-04-25T00:48:05;6.20;99.90
8475;DHT22;4274;52.012;8.448;2023-04-25T00:50:33;6.20;99.90
8475;DHT22;4274;52.012;8.448;2023-04-25T00:52:58;6.20;99.90
8475;DHT22;4274;52.012;8.448;2023-04-25T00:55:24;6.20;99.90
8475;DHT22;4274;52.012;8.448;2023-04-25T00:57:50;6.20;99.90
8475;DHT22;4274;52.012;8.448;2023-04-25T01:00:16;6.20;99.90
8475;DHT22;4274;52.012;8.448;2023-04-25T01:02:43;6.20;99.90
8475;DHT22;4274;52.012;8.448;2023-04-25T01:05:10;6.20;99.90
8475;DHT22;4274;52.012;8.448;2023-04-25T01:07:37;6.30;99.90
8475;DHT22;4274;52.012;8.448;2023-04-25T01:10:03;6.30;99.90
8475;DHT22;4274;52.012;8.448;2023-04-25T01:12:30;6.30;99.90
8475;DHT22;4274;52.012;8.448;2023-04-25T01:14:56;6.30;99.90
8475;DHT22;4274;52.012;8.448;2023-04-25T01:17:21;6.30;99.90
8475;DHT22;4274;52.012;8.448;2023-04-25T01:19:47;6.30;99.90
8475;DHT22;4274;52.012;8.448;2023-04-25T01:22:14;6.30;99.90
8475;DHT22;4274;52.012;8.448;2023-04-25T01:24:40;6.30;99.90
8475;DHT22;4274;52.012;8.448;2023-04-25T01:27:06;6.30;99.90
8475;DHT22;4274;52.012;8.448;2023-04-25T01:29:32;6.30;99.90
8475;DHT22;4274;52.012;8.448;2023-04-25T01:31:59;6.30;99.90
8475;DHT22;4274;52.012;8.448;2023-04-25T01:34:25;6.30;99.90
8475;DHT22;4274;52.012;8.448;2023-04-25T01:36:51;6.20;99.90
8475;DHT22;4274;52.012;8.448;2023-04-25T01:39:18;6.20;99.90
8475;DHT22;4274;52.012;8.448;2023-04-25T01:41:45;6.20;99.90
8475;DHT22;4274;52.012;8.448;2023-04-25T01:44:11;6.20;99.90
8475;DHT22;4274;52.012;8.448;2023-04-25T01:46:36;6.20;99.90
8475;DHT22;4274;52.012;8.448;2023-04-25T01:49:02;6.20;99.90
8475;DHT22;4274;52.012;8.448;2023-04-25T01:51:28;6.20;99.90
8475;DHT22;4274;52.012;8.448;2023-04-25T01:53:54;6.10;99.90
8475;DHT22;4274;52.012;8.448;2023-04-25T01:56:20;6.10;99.90
8475;DHT22;4274;52.012;8.448;2023-04-25T01:58:46;6.10;99.90
8475;DHT22;4274;52.012;8.448;2023-04-25T02:01:11;6.10;99.90
8475;DHT22;4274;52.012;8.448;2023-04-25T02:03:37;6.10;99.90
8475;DHT22;4274;52.012;8.448;2023-04-25T02:06:03;6.10;99.90
8475;DHT22;4274;52.012;8.448;2023-04-25T02:08:28;6.10;99.90
8475;DHT22;4274;52.012;8.448;2023-04-25T02:10:55;6.10;99.90
8475;DHT22;4274;52.012;8.448;2023-04-25T02:13:21;6.10;99.90
8475;DHT22;4274;52.012;8.448;2023-04-25T02:15:46;6.10;99.90
8475;DHT22;4274;52.012;8.448;2023-04-25T02:18:12;6.10;99.90
8475;DHT22;4274;52.012;8.448;2023-04-25T02:20:37;6.10;99.90
8475;DHT22;4274;52.012;8.448;2023-04-25T02:23:03;6.10;99.90
8475;DHT22;4274;52.012;8.448;2023-04-25T02:25:29;6.10;99.90
8475;DHT22;4274;52.012;8.448;2023-04-25T02:27:55;6.10;99.90
8475;DHT22;4274;52.012;8.448;2023-04-25T02:30:20;6.10;99.90
8475;DHT22;4274;52.012;8.448;2023-04-25T02:32:46;6.20;99.90
8475;DHT22;4274;52.012;8.448;2023-04-25T02:35:11;6.20;99.90
8475;DHT22;4274;52.012;8.448;2023-04-25T02:37:38;6.20;99.90
8475;DHT22;4274;52.012;8.448;2023-04-25T02:40:05;6.20;99.90
8475;DHT22;4274;52.012;8.448;2023-04-25T02:42:31;6.20;99.90
8475;DHT22;4274;52.012;8.448;2023-04-25T02:44:56;6.10;99.90
8475;DHT22;4274;52.012;8.448;2023-04-25T02:47:22;6.10;99.90
8475;DHT22;4274;52.012;8.448;2023-04-25T02:49:48;6.00;99.90
8475;DHT22;4274;52.012;8.448;2023-04-25T02:52:13;6.00;99.90
8475;DHT22;4274;52.012;8.448;2023-04-25T02:54:40;6.00;99.90
8475;DHT22;4274;52.012;8.448;2023-04-25T02:57:06;6.00;99.90
8475;DHT22;4274;52.012;8.448;2023-04-25T02:59:31;5.90;99.90
8475;DHT22;4274;52.012;8.448;2023-04-25T03:01:57;5.90;99.90
8475;DHT22;4274;52.012;8.448;2023-04-25T03:04:22;5.90;99.90
8475;DHT22;4274;52.012;8.448;2023-04-25T03:06:52;5.90;99.90
8475;DHT22;4274;52.012;8.448;2023-04-25T03:09:18;5.80;99.90
8475;DHT22;4274;52.012;8.448;2023-04-25T03:11:44;5.80;99.90
8475;DHT22;4274;52.012;8.448;2023-04-25T03:14:10;5.80;99.90
8475;DHT22;4274;52.012;8.448;2023-04-25T03:16:36;5.80;99.90
8475;DHT22;4274;52.012;8.448;2023-04-25T03:19:05;5.80;99.90
8475;DHT22;4274;52.012;8.448;2023-04-25T03:21:32;5.80;99.90
8475;DHT22;4274;52.012;8.448;2023-04-25T03:23:59;5.80;99.90
8475;DHT22;4274;52.012;8.448;2023-04-25T03:26:24;5.80;99.90
8475;DHT22;4274;52.012;8.448;2023-04-25T03:28:50;5.80;99.90
8475;DHT22;4274;52.012;8.448;2023-04-25T03:31:16;5.80;99.90
8475;DHT22;4274;52.012;8.448;2023-04-25T03:33:41;5.70;99.90
8475;DHT22;4274;52.012;8.448;2023-04-25T03:36:07;5.70;99.90
8475;DHT22;4274;52.012;8.448;2023-04-25T03:38:33;5.70;99.90
8475;DHT22;4274;52.012;8.448;2023-04-25T03:40:58;5.70;99.90
8475;DHT22;4274;52.012;8.448;2023-04-25T03:43:24;5.70;99.90
8475;DHT22;4274;52.012;8.448;2023-04-25T03:45:50;5.70;99.90
8475;DHT22;4274;52.012;8.448;2023-04-25T03:48:15;5.70;99.90
8475;DHT22;4274;52.012;8.448;2023-04-25T03:50:41;5.70;99.90
8475;DHT22;4274;52.012;8.448;2023-04-25T03:53:06;5.60;99.90
8475;DHT22;4274;52.012;8.448;2023-04-25T03:55:32;5.60;99.90
8475;DHT22;4274;52.012;8.448;2023-04-25T03:57:58;5.70;99.90
8475;DHT22;4274;52.012;8.448;2023-04-25T04:00:24;5.70;99.90
8475;DHT22;4274;52.012;8.448;2023-04-25T04:02:50;5.70;99.90
8475;DHT22;4274;52.012;8.448;2023-04-25T04:05:15;5.70;99.90
8475;DHT22;4274;52.012;8.448;2023-04-25T04:07:41;5.70;99.90
8475;DHT22;4274;52.012;8.448;2023-04-25T04:10:08;5.70;99.90
8475;DHT22;4274;52.012;8.448;2023-04-25T04:12:34;5.70;99.90
8475;DHT22;4274;52.012;8.448;2023-04-25T04:15:00;5.70;99.90
8475;DHT22;4274;52.012;8.448;2023-04-25T04:17:26;5.70;99.90
8475;DHT22;4274;52.012;8.448;2023-04-25T04:19:51;5.70;99.90
8475;DHT22;4274;52.012;8.448;2023-04-25T04:22:17;5.70;99.90
8475;DHT22;4274;52.012;8.448;2023-04-25T04:24:43;5.60;99.90
8475;DHT22;4274;52.012;8.448;2023-04-25T04:27:11;5.60;99.90
8475;DHT22;4274;52.012;8.448;2023-04-25T04:29:38;5.70;99.90
8475;DHT22;4274;52.012;8.448;2023-04-25T04:32:04;5.60;99.90
8475;DHT22;4274;52.012;8.448;2023-04-25T04:34:30;5.70;99.90
8475;DHT22;4274;52.012;8.448;2023-04-25T04:36:56;5.70;99.90
8475;DHT22;4274;52.012;8.448;2023-04-25T04:39:22;5.70;99.90
8475;DHT22;4274;52.012;8.448;2023-04-25T04:41:48;5.60;99.90
8475;DHT22;4274;52.012;8.448;2023-04-25T04:44:14;5.60;99.90
8475;DHT22;4274;52.012;8.448;2023-04-25T04:46:40;5.70;99.90
8475;DHT22;4274;52.012;8.448;2023-04-25T04:49:08;5.70;99.90
8475;DHT22;4274;52.012;8.448;2023-04-25T04:51:34;5.80;99.90
8475;DHT22;4274;52.012;8.448;2023-04-25T04:54:00;5.80;99.90
8475;DHT22;4274;52.012;8.448;2023-04-25T04:56:28;5.80;99.90
8475;DHT22;4274;52.012;8.448;2023-04-25T04:58:56;5.80;99.90
8475;DHT22;4274;52.012;8.448;2023-04-25T05:01:22;5.80;99.90
8475;DHT22;4274;52.012;8.448;2023-04-25T05:03:48;5.90;99.90
8475;DHT22;4274;52.012;8.448;2023-04-25T05:06:13;5.90;99.90
8475;DHT22;4274;52.012;8.448;2023-04-25T05:08:39;5.80;99.90
8475;DHT22;4274;52.012;8.448;2023-04-25T05:11:05;5.90;99.90
8475;DHT22;4274;52.012;8.448;2023-04-25T05:13:30;5.90;99.90
8475;DHT22;4274;52.012;8.448;2023-04-25T05:15:56;5.90;99.90
8475;DHT22;4274;52.012;8.448;2023-04-25T05:18:21;5.90;99.90
8475;DHT22;4274;52.012;8.448;2023-04-25T05:20:47;5.90;99.90
8475;DHT22;4274;52.012;8.448;2023-04-25T05:23:13;6.00;99.90
8475;DHT22;4274;52.012;8.448;2023-04-25T05:25:38;6.00;99.90
8475;DHT22;4274;52.012;8.448;2023-04-25T05:28:04;6.00;99.90
8475;DHT22;4274;52.012;8.448;2023-04-25T05:30:30;6.10;99.90
8475;DHT22;4274;52.012;8.448;2023-04-25T05:32:56;6.10;99.90
8475;DHT22;4274;52.012;8.448;2023-04-25T05:35:22;6.10;99.90
8475;DHT22;4274;52.012;8.448;2023-04-25T05:37:47;6.20;99.90
8475;DHT22;4274;52.012;8.448;2023-04-25T05:40:13;6.30;99.90
8475;DHT22;4274;52.012;8.448;2023-04-25T05:42:38;6.30;99.90
8475;DHT22;4274;52.012;8.448;2023-04-25T05:45:05;6.40;99.90
8475;DHT22;4274;52.012;8.448;2023-04-25T05:47:30;6.40;99.90
8475;DHT22;4274;52.012;8.448;2023-04-25T05:49:56;6.40;99.90
8475;DHT22;4274;52.012;8.448;2023-04-25T05:52:21;6.50;99.90
8475;DHT22;4274;52.012;8.448;2023-04-25T05:54:48;6.60;99.90
8475;DHT22;4274;52.012;8.448;2023-04-25T05:57:23;6.60;99.90
8475;DHT22;4274;52.012;8.448;2023-04-25T05:59:49;6.70;99.90
8475;DHT22;4274;52.012;8.448;2023-04-25T06:02:15;6.80;99.90
8475;DHT22;4274;52.012;8.448;2023-04-25T06:04:41;6.70;99.90
8475;DHT22;4274;52.012;8.448;2023-04-25T06:07:07;6.80;99.90
8475;DHT22;4274;52.012;8.448;2023-04-25T06:09:32;6.80;99.90
8475;DHT22;4274;52.012;8.448;2023-04-25T06:11:58;6.90;99.90
8475;DHT22;4274;52.012;8.448;2023-04-25T06:14:23;6.90;99.90
8475;DHT22;4274;52.012;8.448;2023-04-25T06:16:49;6.90;99.90
8475;DHT22;4274;52.012;8.448;2023-04-25T06:19:14;7.00;99.90
8475;DHT22;4274;52.012;8.448;2023-04-25T06:21:41;7.00;99.90
8475;DHT22;4274;52.012;8.448;2023-04-25T06:24:07;6.90;99.90
8475;DHT22;4274;52.012;8.448;2023-04-25T06:26:32;7.00;99.90
8475;DHT22;4274;52.012;8.448;2023-04-25T06:28:58;7.00;99.90
8475;DHT22;4274;52.012;8.448;2023-04-25T06:31:24;6.90;99.90
8475;DHT22;4274;52.012;8.448;2023-04-25T06:33:49;6.90;99.90
8475;DHT22;4274;52.012;8.448;2023-04-25T06:36:15;6.90;99.90
8475;DHT22;4274;52.012;8.448;2023-04-25T06:38:40;7.00;99.90
8475;DHT22;4274;52.012;8.448;2023-04-25T06:41:06;7.00;99.90
8475;DHT22;4274;52.012;8.448;2023-04-25T06:43:31;7.10;99.90
8475;DHT22;4274;52.012;8.448;2023-04-25T06:45:59;7.10;99.90
8475;DHT22;4274;52.012;8.448;2023-04-25T06:48:26;7.00;99.90
8475;DHT22;4274;52.012;8.448;2023-04-25T06:50:52;7.00;99.90
8475;DHT22;4274;52.012;8.448;2023-04-25T06:53:17;7.00;99.90
8475;DHT22;4274;52.012;8.448;2023-04-25T06:55:44;7.10;99.90
8475;DHT22;4274;52.012;8.448;2023-04-25T06:58:09;7.20;99.90
8475;DHT22;4274;52.012;8.448;2023-04-25T07:00:35;7.30;99.90
8475;DHT22;4274;52.012;8.448;2023-04-25T07:03:01;7.30;99.90
8475;DHT22;4274;52.012;8.448;2023-04-25T07:05:27;7.40;99.90
8475;DHT22;4274;52.012;8.448;2023-04-25T07:07:53;7.50;99.90
8475;DHT22;4274;52.012;8.448;2023-04-25T07:10:18;7.60;99.90
8475;DHT22;4274;52.012;8.448;2023-04-25T07:12:44;7.70;99.90
8475;DHT22;4274;52.012;8.448;2023-04-25T07:15:09;7.80;99.90
8475;DHT22;4274;52.012;8.448;2023-04-25T07:17:37;7.80;99.90
8475;DHT22;4274;52.012;8.448;2023-04-25T07:20:02;7.90;99.90
8475;DHT22;4274;52.012;8.448;2023-04-25T07:22:29;7.90;99.90
8475;DHT22;4274;52.012;8.448;2023-04-25T07:24:55;8.00;99.90
8475;DHT22;4274;52.012;8.448;2023-04-25T07:27:20;8.10;99.90
8475;DHT22;4274;52.012;8.448;2023-04-25T07:29:46;8.20;99.90
8475;DHT22;4274;52.012;8.448;2023-04-25T07:32:12;8.20;99.90
8475;DHT22;4274;52.012;8.448;2023-04-25T07:34:39;8.30;99.90
8475;DHT22;4274;52.012;8.448;2023-04-25T07:37:04;8.40;99.90
8475;DHT22;4274;52.012;8.448;2023-04-25T07:39:30;8.50;99.90
8475;DHT22;4274;52.012;8.448;2023-04-25T07:41:56;8.60;99.90
8475;DHT22;4274;52.012;8.448;2023-04-25T07:44:24;8.80;99.90
8475;DHT22;4274;52.012;8.448;2023-04-25T07:46:51;8.80;99.90
8475;DHT22;4274;52.012;8.448;2023-04-25T07:49:16;8.90;99.90
8475;DHT22;4274;52.012;8.448;2023-04-25T07:51:42;8.90;99.90
8475;DHT22;4274;52.012;8.448;2023-04-25T07:54:09;9.00;99.90
8475;DHT22;4274;52.012;8.448;2023-04-25T07:56:35;9.10;99.90
8475;DHT22;4274;52.012;8.448;2023-04-25T07:59:00;9.10;99.90
8475;DHT22;4274;52.012;8.448;2023-04-25T08:01:26;9.30;99.90
8475;DHT22;4274;52.012;8.448;2023-04-25T08:03:52;9.40;99.90
8475;DHT22;4274;52.012;8.448;2023-04-25T08:06:18;9.60;99.90
8475;DHT22;4274;52.012;8.448;2023-04-25T08:08:43;9.80;99.90
8475;DHT22;4274;52.012;8.448;2023-04-25T08:11:09;10.00;99.90
8475;DHT22;4274;52.012;8.448;2023-04-25T08:13:35;10.10;99.90
8475;DHT22;4274;52.012;8.448;2023-04-25T08:16:01;10.20;99.90
8475;DHT22;4274;52.012;8.448;2023-04-25T08:18:27;10.30;99.90
8475;DHT22;4274;52.012;8.448;2023-04-25T08:20:52;10.50;99.90
8475;DHT22;4274;52.012;8.448;2023-04-25T08:23:18;10.60;99.90
8475;DHT22;4274;52.012;8.448;2023-04-25T08:25:43;10.60;99.90
8475;DHT22;4274;52.012;8.448;2023-04-25T08:28:09;10.50;99.90
8475;DHT22;4274;52.012;8.448;2023-04-25T08:30:36;10.40;99.90
8475;DHT22;4274;52.012;8.448;2023-04-25T08:33:02;10.40;99.90
8475;DHT22;4274;52.012;8.448;2023-04-25T08:35:28;10.40;99.90
8475;DHT22;4274;52.012;8.448;2023-04-25T08:37:53;10.50;99.90
8475;DHT22;4274;52.012;8.448;2023-04-25T08:40:19;10.50;99.90
8475;DHT22;4274;52.012;8.448;2023-04-25T08:42:52;10.40;99.90
8475;DHT22;4274;52.012;8.448;2023-04-25T08:45:18;10.30;99.90
8475;DHT22;4274;52.012;8.448;2023-04-25T08:47:45;10.30;99.90
8475;DHT22;4274;52.012;8.448;2023-04-25T08:50:11;10.40;99.90
8475;DHT22;4274;52.012;8.448;2023-04-25T08:52:45;10.30;99.90
8475;DHT22;4274;52.012;8.448;2023-04-25T08:55:13;10.30;99.90
8475;DHT22;4274;52.012;8.448;2023-04-25T08:57:40;10.30;99.90
8475;DHT22;4274;52.012;8.448;2023-04-25T09:00:09;10.20;99.90
8475;DHT22;4274;52.012;8.448;2023-04-25T09:02:35;10.10;99.90
8475;DHT22;4274;52.012;8.448;2023-04-25T09:05:02;10.00;99.90
8475;DHT22;4274;52.012;8.448;2023-04-25T09:07:27;9.90;99.90
8475;DHT22;4274;52.012;8.448;2023-04-25T09:09:53;10.00;99.90
8475;DHT22;4274;52.012;8.448;2023-04-25T09:12:19;10.90;99.90
8475;DHT22;4274;52.012;8.448;2023-04-25T09:15:08;12.30;99.90
8475;DHT22;4274;52.012;8.448;2023-04-25T09:17:33;13.20;99.90
8475;DHT22;4274;52.012;8.448;2023-04-25T09:20:14;13.30;99.90
8475;DHT22;4274;52.012;8.448;2023-04-25T09:22:41;12.70;99.90
8475;DHT22;4274;52.012;8.448;2023-04-25T09:25:12;12.10;99.90
8475;DHT22;4274;52.012;8.448;2023-04-25T09:27:52;11.50;99.90
8475;DHT22;4274;52.012;8.448;2023-04-25T09:30:18;12.00;99.90
8475;DHT22;4274;52.012;8.448;2023-04-25T09:32:44;13.10;99.90
8475;DHT22;4274;52.012;8.448;2023-04-25T09:35:10;13.90;99.90
8475;DHT22;4274;52.012;8.448;2023-04-25T09:37:36;13.90;99.90
8475;DHT22;4274;52.012;8.448;2023-04-25T09:40:05;14.00;99.90
8475;DHT22;4274;52.012;8.448;2023-04-25T09:42:32;13.60;99.90
8475;DHT22;4274;52.012;8.448;2023-04-25T09:45:01;12.90;99.90
8475;DHT22;4274;52.012;8.448;2023-04-25T09:47:29;12.30;99.90
8475;DHT22;4274;52.012;8.448;2023-04-25T09:49:54;11.80;99.90
8475;DHT22;4274;52.012;8.448;2023-04-25T09:52:24;11.50;99.90
8475;DHT22;4274;52.012;8.448;2023-04-25T09:54:51;11.20;99.90
8475;DHT22;4274;52.012;8.448;2023-04-25T09:57:19;11.00;99.90
8475;DHT22;4274;52.012;8.448;2023-04-25T09:59:49;10.80;99.90
8475;DHT22;4274;52.012;8.448;2023-04-25T10:02:17;10.40;99.90
8475;DHT22;4274;52.012;8.448;2023-04-25T10:04:45;10.20;99.90
8475;DHT22;4274;52.012;8.448;2023-04-25T10:07:13;9.90;99.90
8475;DHT22;4274;52.012;8.448;2023-04-25T10:09:40;9.70;99.90
8475;DHT22;4274;52.012;8.448;2023-04-25T10:12:07;9.40;99.90
8475;DHT22;4274;52.012;8.448;2023-04-25T10:14:33;9.20;99.90
8475;DHT22;4274;52.012;8.448;2023-04-25T10:16:59;9.00;99.90
8475;DHT22;4274;52.012;8.448;2023-04-25T10:19:26;8.80;99.90
8475;DHT22;4274;52.012;8.448;2023-04-25T10:22:10;8.70;99.90
8475;DHT22;4274;52.012;8.448;2023-04-25T10:24:37;8.50;99.90
8475;DHT22;4274;52.012;8.448;2023-04-25T10:27:04;8.30;99.90
8475;DHT22;4274;52.012;8.448;2023-04-25T10:29:30;8.20;99.90
8475;DHT22;4274;52.012;8.448;2023-04-25T10:31:57;8.10;99.90
8475;DHT22;4274;52.012;8.448;2023-04-25T10:37:05;8.30;99.90
8475;DHT22;4274;52.012;8.448;2023-04-25T10:39:33;8.60;99.90
8475;DHT22;4274;52.012;8.448;2023-04-25T10:42:02;9.10;99.90
8475;DHT22;4274;52.012;8.448;2023-04-25T10:44:28;10.00;99.90
8475;DHT22;4274;52.012;8.448;2023-04-25T10:47:01;11.40;99.90
8475;DHT22;4274;52.012;8.448;2023-04-25T10:49:41;12.80;99.90
8475;DHT22;4274;52.012;8.448;2023-04-25T10:52:12;14.50;99.90
8475;DHT22;4274;52.012;8.448;2023-04-25T10:57:36;17.00;99.90
8475;DHT22;4274;52.012;8.448;2023-04-25T11:00:13;16.40;99.90
8475;DHT22;4274;52.012;8.448;2023-04-25T11:05:08;14.40;99.90
8475;DHT22;4274;52.012;8.448;2023-04-25T11:07:52;13.60;99.90
8475;DHT22;4274;52.012;8.448;2023-04-25T11:10:18;13.10;99.90
8475;DHT22;4274;52.012;8.448;2023-04-25T11:12:46;12.70;99.90
8475;DHT22;4274;52.012;8.448;2023-04-25T11:15:13;12.50;99.90
8475;DHT22;4274;52.012;8.448;2023-04-25T11:17:39;12.90;99.90
8475;DHT22;4274;52.012;8.448;2023-04-25T11:20:07;14.20;99.90
8475;DHT22;4274;52.012;8.448;2023-04-25T11:22:37;15.80;99.90
8475;DHT22;4274;52.012;8.448;2023-04-25T11:25:10;17.00;99.90
8475;DHT22;4274;52.012;8.448;2023-04-25T11:27:53;16.80;96.60
8475;DHT22;4274;52.012;8.448;2023-04-25T11:30:20;15.80;95.50
8475;DHT22;4274;52.012;8.448;2023-04-25T11:32:46;14.70;96.10
8475;DHT22;4274;52.012;8.448;2023-04-25T11:35:12;13.90;97.60
8475;DHT22;4274;52.012;8.448;2023-04-25T11:37:42;13.20;99.10
8475;DHT22;4274;52.012;8.448;2023-04-25T11:40:09;12.60;98.80
8475;DHT22;4274;52.012;8.448;2023-04-25T11:42:53;12.10;99.10
8475;DHT22;4274;52.012;8.448;2023-04-25T11:45:19;11.40;98.40
8475;DHT22;4274;52.012;8.448;2023-04-25T11:47:45;11.00;99.10
8475;DHT22;4274;52.012;8.448;2023-04-25T11:50:11;10.60;99.90
8475;DHT22;4274;52.012;8.448;2023-04-25T11:52:41;10.20;99.90
8475;DHT22;4274;52.012;8.448;2023-04-25T11:55:15;9.90;99.90
8475;DHT22;4274;52.012;8.448;2023-04-25T11:57:42;9.50;99.90
8475;DHT22;4274;52.012;8.448;2023-04-25T12:00:21;9.20;99.90
8475;DHT22;4274;52.012;8.448;2023-04-25T12:02:52;8.90;99.90
8475;DHT22;4274;52.012;8.448;2023-04-25T12:05:18;8.70;99.90
8475;DHT22;4274;52.012;8.448;2023-04-25T12:07:45;8.60;99.90
8475;DHT22;4274;52.012;8.448;2023-04-25T12:10:13;8.80;99.90
8475;DHT22;4274;52.012;8.448;2023-04-25T12:12:42;9.10;99.90
8475;DHT22;4274;52.012;8.448;2023-04-25T12:15:17;9.20;99.90
8475;DHT22;4274;52.012;8.448;2023-04-25T12:17:49;9.40;99.90
8475;DHT22;4274;52.012;8.448;2023-04-25T12:20:19;9.50;99.90
8475;DHT22;4274;52.012;8.448;2023-04-25T12:22:47;9.60;99.90
8475;DHT22;4274;52.012;8.448;2023-04-25T12:25:35;9.70;99.90
8475;DHT22;4274;52.012;8.448;2023-04-25T12:33:35;10.20;99.90
8475;DHT22;4274;52.012;8.448;2023-04-25T12:36:03;10.70;99.90
8475;DHT22;4274;52.012;8.448;2023-04-25T12:38:37;12.20;99.90
8475;DHT22;4274;52.012;8.448;2023-04-25T12:41:03;13.90;99.90
8475;DHT22;4274;52.012;8.448;2023-04-25T12:43:29;15.30;99.90
8475;DHT22;4274;52.012;8.448;2023-04-25T12:45:55;16.10;99.90
8475;DHT22;4274;52.012;8.448;2023-04-25T12:48:21;16.60;99.90
8475;DHT22;4274;52.012;8.448;2023-04-25T12:50:48;16.70;99.90
8475;DHT22;4274;52.012;8.448;2023-04-25T12:53:15;16.80;99.10
8475;DHT22;4274;52.012;8.448;2023-04-25T12:55:41;17.00;98.20
8475;DHT22;4274;52.012;8.448;2023-04-25T12:58:06;17.20;97.70
8475;DHT22;4274;52.012;8.448;2023-04-25T13:00:32;17.30;98.90
8475;DHT22;4274;52.012;8.448;2023-04-25T13:02:58;17.40;97.20
8475;DHT22;4274;52.012;8.448;2023-04-25T13:05:25;16.80;94.60
8475;DHT22;4274;52.012;8.448;2023-04-25T13:07:50;16.00;95.30
8475;DHT22;4274;52.012;8.448;2023-04-25T13:10:17;15.20;95.70
8475;DHT22;4274;52.012;8.448;2023-04-25T13:12:43;14.40;95.30
8475;DHT22;4274;52.012;8.448;2023-04-25T13:15:09;13.70;97.20
8475;DHT22;4274;52.012;8.448;2023-04-25T13:17:39;12.60;99.70
8475;DHT22;4274;52.012;8.448;2023-04-25T13:20:06;11.70;99.90
8475;DHT22;4274;52.012;8.448;2023-04-25T13:22:34;10.80;99.90
8475;DHT22;4274;52.012;8.448;2023-04-25T13:25:02;10.00;99.90
8475;DHT22;4274;52.012;8.448;2023-04-25T13:27:28;9.50;99.90
8475;DHT22;4274;52.012;8.448;2023-04-25T13:29:54;9.20;99.90
8475;DHT22;4274;52.012;8.448;2023-04-25T13:32:19;9.00;99.90
8475;DHT22;4274;52.012;8.448;2023-04-25T13:34:45;8.90;99.90
8475;DHT22;4274;52.012;8.448;2023-04-25T13:37:11;9.00;99.90
8475;DHT22;4274;52.012;8.448;2023-04-25T13:39:36;9.30;99.90
8475;DHT22;4274;52.012;8.448;2023-04-25T13:42:02;9.90;99.90
8475;DHT22;4274;52.012;8.448;2023-04-25T13:44:28;10.40;99.90
8475;DHT22;4274;52.012;8.448;2023-04-25T13:46:54;10.70;99.90
8475;DHT22;4274;52.012;8.448;2023-04-25T13:49:19;11.10;99.90
8475;DHT22;4274;52.012;8.448;2023-04-25T13:51:45;11.30;99.90
8475;DHT22;4274;52.012;8.448;2023-04-25T13:54:11;11.50;99.90
8475;DHT22;4274;52.012;8.448;2023-04-25T13:56:36;11.60;99.90
8475;DHT22;4274;52.012;8.448;2023-04-25T13:59:02;11.70;99.90
8475;DHT22;4274;52.012;8.448;2023-04-25T14:01:28;11.80;99.90
8475;DHT22;4274;52.012;8.448;2023-04-25T14:03:55;11.90;99.90
8475;DHT22;4274;52.012;8.448;2023-04-25T14:06:21;12.00;99.90
8475;DHT22;4274;52.012;8.448;2023-04-25T14:08:49;12.00;99.90
8475;DHT22;4274;52.012;8.448;2023-04-25T14:11:15;11.70;99.90
8475;DHT22;4274;52.012;8.448;2023-04-25T14:13:43;11.60;99.90
8475;DHT22;4274;52.012;8.448;2023-04-25T14:16:09;11.60;99.90
8475;DHT22;4274;52.012;8.448;2023-04-25T14:18:34;11.50;99.90
8475;DHT22;4274;52.012;8.448;2023-04-25T14:21:00;11.40;99.90
8475;DHT22;4274;52.012;8.448;2023-04-25T14:23:26;11.40;99.90
8475;DHT22;4274;52.012;8.448;2023-04-25T14:25:52;11.40;99.90
8475;DHT22;4274;52.012;8.448;2023-04-25T14:28:17;11.60;99.90
8475;DHT22;4274;52.012;8.448;2023-04-25T14:30:43;11.80;99.90
8475;DHT22;4274;52.012;8.448;2023-04-25T14:33:09;11.80;99.90
8475;DHT22;4274;52.012;8.448;2023-04-25T14:35:35;11.70;99.90
8475;DHT22;4274;52.012;8.448;2023-04-25T14:38:00;11.50;99.90
8475;DHT22;4274;52.012;8.448;2023-04-25T14:40:26;11.40;99.90
8475;DHT22;4274;52.012;8.448;2023-04-25T14:42:52;11.30;99.90
8475;DHT22;4274;52.012;8.448;2023-04-25T14:45:17;11.20;99.90
8475;DHT22;4274;52.012;8.448;2023-04-25T14:47:43;11.00;99.90
8475;DHT22;4274;52.012;8.448;2023-04-25T14:50:09;11.00;99.90
8475;DHT22;4274;52.012;8.448;2023-04-25T14:52:35;10.90;99.90
8475;DHT22;4274;52.012;8.448;2023-04-25T14:55:01;10.90;99.90
8475;DHT22;4274;52.012;8.448;2023-04-25T14:57:30;10.80;99.90
8475;DHT22;4274;52.012;8.448;2023-04-25T14:59:56;10.80;99.90
8475;DHT22;4274;52.012;8.448;2023-04-25T15:02:23;10.70;99.90
8475;DHT22;4274;52.012;8.448;2023-04-25T15:04:48;10.60;99.90
8475;DHT22;4274;52.012;8.448;2023-04-25T15:07:14;10.50;99.90
8475;DHT22;4274;52.012;8.448;2023-04-25T15:09:40;10.50;99.90
8475;DHT22;4274;52.012;8.448;2023-04-25T15:12:06;10.50;99.90
8475;DHT22;4274;52.012;8.448;2023-04-25T15:14:31;10.50;99.90
8475;DHT22;4274;52.012;8.448;2023-04-25T15:16:59;10.50;99.90
8475;DHT22;4274;52.012;8.448;2023-04-25T15:19:25;10.50;99.90
8475;DHT22;4274;52.012;8.448;2023-04-25T15:21:51;10.50;99.90
8475;DHT22;4274;52.012;8.448;2023-04-25T15:24:17;10.40;99.90
8475;DHT22;4274;52.012;8.448;2023-04-25T15:26:43;10.20;99.90
8475;DHT22;4274;52.012;8.448;2023-04-25T15:29:09;10.10;99.90
8475;DHT22;4274;52.012;8.448;2023-04-25T15:31:34;10.00;99.90
8475;DHT22;4274;52.012;8.448;2023-04-25T15:34:01;9.90;99.90
8475;DHT22;4274;52.012;8.448;2023-04-25T15:36:26;9.90;99.90
8475;DHT22;4274;52.012;8.448;2023-04-25T15:38:52;10.00;99.90
8475;DHT22;4274;52.012;8.448;2023-04-25T15:41:18;9.90;99.90
8475;DHT22;4274;52.012;8.448;2023-04-25T15:43:43;9.80;99.90
8475;DHT22;4274;52.012;8.448;2023-04-25T15:46:09;9.70;99.90
8475;DHT22;4274;52.012;8.448;2023-04-25T15:48:34;9.60;99.90
8475;DHT22;4274;52.012;8.448;2023-04-25T15:51:00;9.50;99.90
8475;DHT22;4274;52.012;8.448;2023-04-25T15:53:26;9.50;99.90
8475;DHT22;4274;52.012;8.448;2023-04-25T15:55:52;9.40;99.90
8475;DHT22;4274;52.012;8.448;2023-04-25T15:58:17;9.40;99.90
8475;DHT22;4274;52.012;8.448;2023-04-25T16:00:43;9.30;99.90
8475;DHT22;4274;52.012;8.448;2023-04-25T16:03:09;9.20;99.90
8475;DHT22;4274;52.012;8.448;2023-04-25T16:05:35;9.10;99.90
8475;DHT22;4274;52.012;8.448;2023-04-25T16:08:01;9.00;99.90
8475;DHT22;4274;52.012;8.448;2023-04-25T16:10:29;9.00;99.90
8475;DHT22;4274;52.012;8.448;2023-04-25T16:12:54;8.90;99.90
8475;DHT22;4274;52.012;8.448;2023-04-25T16:15:20;8.90;99.90
8475;DHT22;4274;52.012;8.448;2023-04-25T16:17:47;8.90;99.90
8475;DHT22;4274;52.012;8.448;2023-04-25T16:20:12;8.90;99.90
8475;DHT22;4274;52.012;8.448;2023-04-25T16:22:40;8.90;99.90